Monday, December 18, 2017, 11:32 AM EST
Back to Local

KLBE, Latrobe / Westmorland

Location: Latrobe, PA, United States Lat: 40.283
Local Time: 11:32 AM EST (16:32 GMT) Lon: -79.4
Time Zone: US/Eastern Elev: 1184 ft

Show me the last for .
Show Decoded

2017-12-18 09:50 METAR KLBE 181450Z 23010KT 8SM OVC011 04/03 A3008 =
2017-12-18 08:50 METAR KLBE 181350Z 24010KT 10SM BKN013 04/03 A3007 =
2017-12-18 07:50 METAR KLBE 181250Z 23008KT 8SM OVC015 03/03 A3009 =
2017-12-18 06:50 METAR KLBE 181150Z 23010KT 8SM SCT020 OVC048 03/02 A3009 =
2017-12-18 05:55 METAR KLBE 181055Z AUTO 20008KT 10SM OVC050 03/01 A3008 RMK AO2 =
2017-12-18 05:35 METAR KLBE 181035Z AUTO 20006KT 10SM OVC050 02/01 A3008 RMK AO2 =
2017-12-18 05:15 METAR KLBE 181015Z AUTO 21005KT 10SM BKN060 01/00 A3008 RMK AO2 =
2017-12-18 04:55 METAR KLBE 180955Z AUTO 22005KT 10SM FEW060 01/00 A3008 RMK AO2 =
2017-12-18 04:35 METAR KLBE 180935Z AUTO 20005KT 10SM FEW060 02/00 A3008 RMK AO2 =
2017-12-18 04:15 METAR KLBE 180915Z AUTO 20006KT 10SM BKN060 03/00 A3008 RMK AO2 =
2017-12-18 03:55 METAR KLBE 180855Z AUTO 20007KT 10SM OVC060 03/00 A3009 RMK AO2 =
2017-12-18 03:35 METAR KLBE 180835Z AUTO 20006KT 10SM OVC070 03/00 A3009 RMK AO2 =
2017-12-18 03:15 METAR KLBE 180815Z AUTO 20005KT 10SM OVC070 03/00 A3009 RMK AO2 =
2017-12-18 02:55 METAR KLBE 180755Z AUTO 19005KT 10SM OVC070 03/00 A3009 RMK AO2 =
2017-12-18 02:35 METAR KLBE 180735Z AUTO 19004KT 10SM OVC070 03/00 A3009 RMK AO2 =
2017-12-18 02:15 METAR KLBE 180715Z AUTO 20005KT 10SM FEW038 BKN070 04/00 A3009 RMK AO2 =
2017-12-18 01:55 METAR KLBE 180655Z AUTO 19006KT 10SM FEW028 SCT038 SCT060 04/00 A3009 RMK AO2 =
2017-12-18 01:35 METAR KLBE 180635Z AUTO 19007KT 10SM FEW028 BKN040 OVC050 04/00 A3010 RMK AO2 =
2017-12-18 01:15 METAR KLBE 180615Z AUTO 20007KT 10SM OVC045 03/01 A3010 RMK AO2 =
2017-12-18 00:55 METAR KLBE 180555Z AUTO 21007KT 10SM SCT049 OVC055 03/01 A3010 RMK AO2 =
2017-12-18 00:35 METAR KLBE 180535Z AUTO 22006KT 10SM OVC065 03/01 A3010 RMK AO2 =
2017-12-18 00:15 METAR KLBE 180515Z AUTO 21005KT 10SM OVC065 03/02 A3010 RMK AO2 =
2017-12-17 23:55 METAR KLBE 180455Z AUTO 19003KT 10SM OVC065 03/02 A3011 RMK AO2 =
2017-12-17 23:35 METAR KLBE 180435Z AUTO 21003KT 9SM OVC065 02/02 A3012 RMK AO2 =
2017-12-17 23:15 METAR KLBE 180415Z AUTO 23004KT 10SM OVC065 02/02 A3011 RMK AO2 =
2017-12-17 22:55 METAR KLBE 180355Z AUTO 21004KT 5SM BR OVC065 02/02 A3010 RMK AO2 =
2017-12-17 22:35 METAR KLBE 180335Z AUTO 00000KT 4SM BR OVC065 02/02 A3010 RMK AO2 =
2017-12-17 22:15 METAR KLBE 180315Z AUTO 00000KT 2 1/2SM BR SCT049 OVC065 02/02 A3010 RMK AO2 =
2017-12-17 21:54 METAR KLBE 180254Z 00000KT 3SM -RA BKN049 BKN065 02/02 A3011 =
2017-12-17 20:45 METAR KLBE 180145Z 00000KT 3SM -RA BKN043 02/02 A3013 =
2017-12-17 19:45 METAR KLBE 180045Z 00000KT 3SM -RA OVC037 02/02 A3014 =
2017-12-17 18:47 METAR KLBE 172347Z 00000KT 5SM -RA SCT021 BKN036 02/02 A3014 =
2017-12-17 17:55 METAR KLBE 172255Z 00000KT 6SM -RA FEW031 SCT047 03/02 A3015 =
2017-12-17 16:50 METAR KLBE 172150Z 00000KT 4SM -RA FEW034 SCT047 03/01 A3016 =
2017-12-17 15:50 METAR KLBE 172050Z 24006KT 10SM OVC080 05/00 A3012 =
2017-12-17 14:50 METAR KLBE 171950Z 24006KT 10SM OVC120 05/M01 A3012 =
2017-12-17 13:50 METAR KLBE 171850Z 24006KT 10SM OVC120 05/M01 A3015 =
2017-12-17 12:50 METAR KLBE 171750Z 23006KT 10SM OVC100 05/M02 A3017 =
2017-12-17 11:45 METAR KLBE 171645Z 22007KT 10SM SKC 04/M02 A3020 =

Support USWX by starting your Amazon purchase here.